Time;durP1;ratioP1;P1;durP2;ratioP2;P2;SDS_P1;SDS_P2;PMS_P1;PMS_P2;Temp;Humidity;BMP_temperature;BMP_pressure;BME280_temperature;BME280_humidity;BME280_pressure;Samples;Min_cycle;Max_cycle;Signal;HPM_P1;HPM_P2
2022/05/28 00:02:04;;;;;;;0.00;0.00;;;18.50;99.90;;;;;;5028566;28;20114;-71
2022/05/28 00:04:30;;;;;;;0.00;0.00;;;18.40;99.90;;;;;;5029844;28;20025;-71
2022/05/28 00:06:56;;;;;;;0.00;0.00;;;18.10;99.90;;;;;;5013287;28;20033;-72
2022/05/28 00:09:22;;;;;;;0.00;0.00;;;18.10;99.90;;;;;;5026420;28;20032;-71
2022/05/28 00:11:49;;;;;;;0.00;0.00;;;18.20;99.90;;;;;;5014062;28;20080;-71
2022/05/28 00:14:15;;;;;;;0.00;0.00;;;18.30;99.90;;;;;;5014709;28;20034;-71
2022/05/28 00:16:41;;;;;;;1.55;1.45;;;18.30;99.90;;;;;;5021434;28;20032;-71
2022/05/28 00:19:08;;;;;;;0.00;0.00;;;18.30;99.90;;;;;;5029829;28;20018;-71
2022/05/28 00:21:34;;;;;;;0.00;0.00;;;18.10;99.90;;;;;;5014347;28;20060;-73
2022/05/28 00:24:01;;;;;;;1.40;1.30;;;18.30;99.90;;;;;;5025563;28;20095;-71
2022/05/28 00:26:27;;;;;;;0.00;0.00;;;18.20;99.90;;;;;;5033006;28;20067;-71
2022/05/28 00:28:53;;;;;;;0.25;0.10;;;18.10;99.90;;;;;;5029250;28;20463;-71
2022/05/28 00:31:19;;;;;;;0.00;0.00;;;18.40;99.90;;;;;;5028401;28;20050;-72
2022/05/28 00:33:46;;;;;;;0.00;0.00;;;18.50;99.90;;;;;;5014973;28;20022;-73
2022/05/28 00:36:13;;;;;;;0.00;0.00;;;18.60;99.90;;;;;;5018986;28;20029;-72
2022/05/28 00:38:41;;;;;;;0.00;0.00;;;18.70;99.90;;;;;;5016062;28;20030;-71
2022/05/28 00:41:08;;;;;;;0.00;0.00;;;18.70;99.90;;;;;;5020938;28;20382;-71
2022/05/28 00:43:34;;;;;;;0.00;0.00;;;18.50;99.90;;;;;;5016247;28;20033;-72
2022/05/28 00:46:23;;;;;;;0.00;0.00;;;18.20;99.90;;;;;;5014410;28;20045;-73
2022/05/28 00:48:53;;;;;;;0.00;0.00;;;18.00;99.90;;;;;;5019870;28;20372;-72
2022/05/28 00:51:44;;;;;;;0.00;0.00;;;17.90;99.90;;;;;;5023346;28;20385;-73
2022/05/28 00:54:11;;;;;;;1.08;0.45;;;18.20;99.90;;;;;;5010771;28;20030;-71
2022/05/28 00:56:37;;;;;;;0.00;0.00;;;18.00;99.90;;;;;;5017676;28;20022;-71
2022/05/28 00:59:04;;;;;;;0.00;0.00;;;17.80;99.90;;;;;;5007593;28;20041;-73
2022/05/28 01:01:33;;;;;;;0.00;0.00;;;18.10;99.90;;;;;;5029645;28;20032;-71
2022/05/28 01:04:29;;;;;;;0.00;0.00;;;18.20;99.90;;;;;;5015941;28;20014;-72
2022/05/28 01:07:14;;;;;;;0.00;0.00;;;18.40;99.90;;;;;;5010553;28;20026;-73
2022/05/28 01:10:05;;;;;;;0.00;0.00;;;18.00;99.90;;;;;;5023400;28;20048;-73
2022/05/28 01:12:47;;;;;;;0.00;0.00;;;17.70;99.90;;;;;;5015762;28;20045;-72
2022/05/28 01:15:29;;;;;;;0.00;0.00;;;17.90;99.90;;;;;;5018086;28;20030;-71
2022/05/28 01:18:06;;;;;;;0.00;0.00;;;18.10;99.90;;;;;;5027756;28;21513;-71
2022/05/28 01:20:40;;;;;;;0.00;0.00;;;18.00;99.90;;;;;;5032364;28;20021;-72
2022/05/28 01:23:40;;;;;;;0.00;0.00;;;17.80;99.90;;;;;;5020312;28;20030;-71
2022/05/28 01:26:32;;;;;;;0.00;0.00;;;17.60;99.90;;;;;;5034848;28;20116;-73
2022/05/28 01:29:03;;;;;;;10.27;9.55;;;17.20;99.90;;;;;;5036064;28;20079;-73
2022/05/28 01:31:31;;;;;;;0.00;0.00;;;17.30;99.90;;;;;;5025705;28;20104;-73
2022/05/28 01:34:00;;;;;;;0.00;0.00;;;17.20;99.90;;;;;;5025824;28;20033;-72
2022/05/28 01:36:27;;;;;;;0.00;0.00;;;17.40;99.90;;;;;;5017443;28;20032;-72
2022/05/28 01:38:57;;;;;;;1.65;0.65;;;17.40;99.90;;;;;;5028712;28;20029;-73
2022/05/28 01:41:25;;;;;;;3.00;2.72;;;17.90;99.90;;;;;;5018719;28;20025;-73
2022/05/28 01:43:52;;;;;;;0.55;0.15;;;17.80;99.90;;;;;;5031803;28;20112;-72
2022/05/28 01:46:20;;;;;;;0.00;0.00;;;18.00;99.90;;;;;;5017627;28;20025;-72
2022/05/28 01:48:50;;;;;;;0.05;0.05;;;17.80;99.90;;;;;;5027649;28;20054;-71
2022/05/28 01:51:18;;;;;;;0.00;0.00;;;17.70;99.90;;;;;;5015136;28;20026;-72
2022/05/28 01:56:30;;;;;;;0.55;0.40;;;17.80;99.90;;;;;;5019846;28;20558;-72
2022/05/28 01:58:57;;;;;;;0.00;0.00;;;18.00;99.90;;;;;;5037306;28;20113;-71
2022/05/28 02:01:23;;;;;;;0.00;0.00;;;17.70;99.90;;;;;;5032774;28;20083;-73
2022/05/28 02:03:53;;;;;;;0.65;0.65;;;17.70;99.90;;;;;;5027110;28;20064;-72
2022/05/28 02:06:19;;;;;;;6.13;5.82;;;18.00;99.90;;;;;;5027132;28;20030;-72
2022/05/28 02:08:47;;;;;;;0.00;0.00;;;17.80;99.90;;;;;;5021570;28;20057;-73
2022/05/28 02:11:15;;;;;;;0.00;0.00;;;18.20;99.90;;;;;;5029384;28;20044;-74
2022/05/28 02:14:10;;;;;;;0.00;0.00;;;18.60;99.90;;;;;;5028317;28;20030;-73
2022/05/28 02:16:57;;;;;;;0.00;0.00;;;18.80;99.90;;;;;;5017106;28;20562;-73
2022/05/28 02:19:26;;;;;;;0.00;0.00;;;18.60;99.90;;;;;;5024915;28;20036;-73
2022/05/28 02:22:03;;;;;;;0.00;0.00;;;18.60;99.90;;;;;;5019717;28;20075;-73
2022/05/28 02:24:39;;;;;;;0.00;0.00;;;18.70;99.90;;;;;;5029281;28;20112;-73
2022/05/28 02:27:12;;;;;;;0.00;0.00;;;18.60;99.90;;;;;;5019406;28;20366;-71
2022/05/28 02:29:38;;;;;;;0.00;0.00;;;18.80;99.90;;;;;;5025315;28;20045;-73
2022/05/28 02:32:22;;;;;;;0.00;0.00;;;18.90;99.90;;;;;;5031709;28;20378;-73
2022/05/28 02:34:50;;;;;;;0.00;0.00;;;19.10;99.90;;;;;;5022073;28;20402;-73
2022/05/28 02:37:24;;;;;;;0.00;0.00;;;19.00;99.90;;;;;;5018203;28;20014;-73
2022/05/28 02:39:50;;;;;;;0.00;0.00;;;19.10;99.90;;;;;;5024897;28;20029;-73
2022/05/28 02:42:17;;;;;;;0.00;0.00;;;19.20;99.90;;;;;;5019314;28;20032;-73
2022/05/28 02:44:43;;;;;;;0.00;0.00;;;19.20;99.90;;;;;;5033425;28;20501;-71
2022/05/28 02:47:09;;;;;;;0.00;0.00;;;19.20;99.90;;;;;;5023211;28;20116;-74
2022/05/28 02:49:35;;;;;;;0.00;0.00;;;18.70;99.90;;;;;;5022697;28;20025;-73
2022/05/28 02:52:04;;;;;;;0.00;0.00;;;18.50;99.90;;;;;;5024349;28;20026;-72
2022/05/28 02:54:31;;;;;;;0.93;0.45;;;18.50;99.90;;;;;;5019894;28;20040;-73
2022/05/28 02:56:57;;;;;;;0.00;0.00;;;18.30;99.90;;;;;;5032029;28;20028;-71
2022/05/28 02:59:23;;;;;;;0.00;0.00;;;18.30;99.90;;;;;;5031058;28;20512;-71
2022/05/28 03:01:50;;;;;;;0.00;0.00;;;18.40;99.90;;;;;;5032519;28;20038;-72
2022/05/28 03:04:17;;;;;;;2.42;2.33;;;18.50;99.90;;;;;;5045638;28;20058;-73
2022/05/28 03:06:43;;;;;;;1.83;1.42;;;18.40;99.90;;;;;;5031558;28;20566;-72
2022/05/28 03:09:10;;;;;;;0.88;0.88;;;18.50;99.90;;;;;;5028197;28;20034;-74
2022/05/28 03:11:37;;;;;;;0.25;0.25;;;18.20;99.90;;;;;;5019250;28;20029;-74
2022/05/28 03:14:04;;;;;;;0.65;0.65;;;18.00;99.90;;;;;;5029958;28;20104;-72
2022/05/28 03:16:31;;;;;;;4.10;1.40;;;17.90;99.90;;;;;;5029672;28;20438;-71
2022/05/28 03:18:57;;;;;;;0.00;0.00;;;17.00;99.90;;;;;;5030423;28;20017;-75
2022/05/28 03:21:23;;;;;;;0.00;0.00;;;17.00;99.90;;;;;;5029102;28;20028;-72
2022/05/28 03:23:49;;;;;;;0.00;0.00;;;17.10;99.90;;;;;;5033160;28;20026;-73
2022/05/28 03:26:17;;;;;;;0.10;0.10;;;16.90;99.90;;;;;;5026156;28;20084;-73
2022/05/28 03:28:44;;;;;;;3.30;3.15;;;17.00;99.90;;;;;;5029030;28;20021;-73
2022/05/28 03:31:10;;;;;;;0.43;0.43;;;17.30;99.90;;;;;;5040168;28;20048;-73
2022/05/28 03:33:36;;;;;;;0.45;0.20;;;17.30;99.90;;;;;;5033843;28;20067;-71
2022/05/28 03:36:02;;;;;;;0.00;0.00;;;17.30;99.90;;;;;;5035315;28;20470;-73
2022/05/28 03:38:28;;;;;;;0.00;0.00;;;17.10;99.90;;;;;;5032536;28;20052;-73
2022/05/28 03:40:54;;;;;;;0.10;0.10;;;17.40;99.90;;;;;;5031338;28;20049;-73
2022/05/28 03:43:20;;;;;;;0.00;0.00;;;17.60;99.90;;;;;;5022731;28;20064;-73
2022/05/28 03:45:46;;;;;;;0.10;0.10;;;17.70;99.90;;;;;;5023020;28;20064;-72
2022/05/28 03:48:13;;;;;;;0.15;0.15;;;17.90;99.90;;;;;;5032666;28;20056;-72
2022/05/28 03:50:39;;;;;;;0.00;0.00;;;18.10;99.90;;;;;;5030746;28;20540;-73
2022/05/28 03:53:05;;;;;;;0.20;0.20;;;18.10;99.90;;;;;;5021354;28;20033;-74
2022/05/28 03:55:31;;;;;;;0.00;0.00;;;17.80;99.90;;;;;;5027463;28;20071;-73
2022/05/28 03:57:57;;;;;;;2.35;2.17;;;17.80;99.90;;;;;;5030642;28;20397;-73
2022/05/28 04:00:23;;;;;;;0.00;0.00;;;17.70;99.90;;;;;;5029151;28;20071;-73
2022/05/28 04:02:51;;;;;;;0.22;0.22;;;17.70;99.90;;;;;;5027962;28;20497;-73
2022/05/28 04:05:18;;;;;;;0.00;0.00;;;16.90;99.90;;;;;;5030339;28;20065;-72
2022/05/28 04:07:44;;;;;;;0.00;0.00;;;16.80;99.90;;;;;;5029155;28;20064;-73
2022/05/28 04:10:11;;;;;;;1.08;0.30;;;16.80;99.90;;;;;;5038233;28;20470;-71
2022/05/28 04:12:37;;;;;;;0.50;0.50;;;16.30;99.90;;;;;;5030508;28;20025;-72
2022/05/28 04:15:03;;;;;;;0.00;0.00;;;16.00;99.90;;;;;;5030654;28;20069;-73
2022/05/28 04:17:29;;;;;;;0.65;0.20;;;16.00;99.90;;;;;;5026850;28;20370;-74
2022/05/28 04:19:55;;;;;;;0.10;0.10;;;16.00;99.90;;;;;;5032438;28;20049;-73
2022/05/28 04:22:21;;;;;;;0.00;0.00;;;16.00;99.90;;;;;;5029538;28;20485;-74
2022/05/28 04:24:47;;;;;;;0.00;0.00;;;16.40;99.90;;;;;;5024848;28;20553;-74
2022/05/28 04:27:13;;;;;;;0.17;0.17;;;16.60;99.90;;;;;;5013268;28;20057;-72
2022/05/28 04:29:39;;;;;;;1.65;0.25;;;16.60;99.90;;;;;;5029415;28;20052;-72
2022/05/28 04:32:05;;;;;;;1.95;1.75;;;16.90;99.90;;;;;;5024947;28;20033;-72
2022/05/28 04:34:31;;;;;;;0.25;0.22;;;16.50;99.90;;;;;;5029730;28;20534;-72
2022/05/28 04:36:58;;;;;;;0.45;0.40;;;15.80;99.90;;;;;;5033844;28;20535;-73
2022/05/28 04:39:24;;;;;;;0.00;0.00;;;16.30;99.90;;;;;;5035504;28;20021;-74
2022/05/28 04:41:50;;;;;;;0.00;0.00;;;16.10;99.90;;;;;;5026437;28;20045;-74
2022/05/28 04:44:16;;;;;;;0.43;0.08;;;16.00;99.90;;;;;;5015662;28;20053;-74
2022/05/28 04:46:42;;;;;;;0.13;0.00;;;15.60;99.90;;;;;;5032230;28;20033;-72
2022/05/28 04:49:08;;;;;;;0.00;0.00;;;15.60;99.90;;;;;;5015654;28;20022;-72
2022/05/28 04:51:34;;;;;;;1.95;0.57;;;15.90;99.90;;;;;;5019148;28;20429;-74
2022/05/28 04:54:00;;;;;;;1.05;0.40;;;15.80;99.90;;;;;;5024025;28;20028;-74
2022/05/28 04:56:26;;;;;;;0.40;0.17;;;15.60;99.90;;;;;;5019640;28;20052;-74
2022/05/28 04:58:52;;;;;;;0.10;0.10;;;15.50;99.90;;;;;;5019792;28;20038;-73
2022/05/28 05:01:20;;;;;;;0.00;0.00;;;15.40;99.90;;;;;;5020475;28;20130;-73
2022/05/28 05:03:46;;;;;;;0.00;0.00;;;15.90;99.90;;;;;;5015274;28;20029;-73
2022/05/28 05:06:12;;;;;;;0.00;0.00;;;16.40;99.90;;;;;;5019379;28;20042;-74
2022/05/28 05:08:38;;;;;;;0.20;0.20;;;16.70;99.90;;;;;;5022322;28;20483;-74
2022/05/28 05:11:04;;;;;;;0.25;0.17;;;17.00;99.90;;;;;;5020909;28;20537;-73
2022/05/28 05:13:31;;;;;;;1.75;1.65;;;16.60;99.90;;;;;;5020557;28;20052;-74
2022/05/28 05:15:57;;;;;;;0.75;0.40;;;15.60;99.90;;;;;;5024116;28;20030;-73
2022/05/28 05:18:23;;;;;;;0.22;0.15;;;15.00;99.90;;;;;;5033407;28;20036;-74
2022/05/28 05:20:49;;;;;;;0.30;0.25;;;14.90;99.90;;;;;;5026356;28;20021;-73
2022/05/28 05:23:17;;;;;;;0.40;0.40;;;15.00;99.90;;;;;;5030395;28;20063;-73
2022/05/28 05:25:44;;;;;;;0.75;0.75;;;14.70;99.90;;;;;;5026639;28;20599;-74
2022/05/28 05:28:10;;;;;;;2.47;1.17;;;14.80;99.90;;;;;;5026618;28;20032;-74
2022/05/28 05:30:36;;;;;;;0.10;0.10;;;14.60;99.90;;;;;;5029208;28;20081;-74
2022/05/28 05:33:02;;;;;;;0.00;0.00;;;14.40;99.90;;;;;;5032158;28;20060;-74
2022/05/28 05:35:28;;;;;;;1.83;1.50;;;14.50;99.90;;;;;;5032645;28;20469;-74
2022/05/28 05:37:54;;;;;;;0.43;0.35;;;14.70;99.90;;;;;;5032617;28;20156;-73
2022/05/28 05:40:20;;;;;;;0.20;0.10;;;14.90;99.90;;;;;;5033316;28;20029;-73
2022/05/28 05:42:46;;;;;;;0.38;0.38;;;15.10;99.90;;;;;;5032396;28;20033;-73
2022/05/28 05:45:12;;;;;;;0.00;0.00;;;15.50;99.90;;;;;;5028326;28;20536;-73
2022/05/28 05:47:38;;;;;;;0.00;0.00;;;15.50;99.90;;;;;;5018978;28;20037;-72
2022/05/28 05:50:06;;;;;;;0.00;0.00;;;15.30;99.90;;;;;;5044002;28;20029;-73
2022/05/28 05:52:36;;;;;;;0.00;0.00;;;15.50;99.90;;;;;;5014572;28;20607;-73
2022/05/28 05:55:03;;;;;;;1.42;1.33;;;15.80;99.90;;;;;;5028301;28;20366;-73
2022/05/28 05:57:29;;;;;;;0.45;0.28;;;15.70;99.90;;;;;;5035132;28;20025;-73
2022/05/28 05:59:55;;;;;;;0.45;0.00;;;15.60;99.90;;;;;;5028588;28;20030;-72
2022/05/28 06:02:21;;;;;;;0.22;0.22;;;14.70;99.90;;;;;;5029519;28;20583;-73
2022/05/28 06:04:47;;;;;;;0.10;0.10;;;15.00;99.90;;;;;;5022768;28;20088;-72
2022/05/28 06:07:13;;;;;;;0.08;0.08;;;15.20;99.90;;;;;;5019149;28;20044;-72
2022/05/28 06:09:41;;;;;;;0.00;0.00;;;15.30;99.90;;;;;;5023446;28;20057;-72
2022/05/28 06:12:07;;;;;;;0.00;0.00;;;15.20;99.90;;;;;;5038834;28;20033;-73
2022/05/28 06:14:33;;;;;;;0.73;0.73;;;15.40;99.90;;;;;;5038156;28;20462;-74
2022/05/28 06:16:59;;;;;;;0.00;0.00;;;15.10;99.90;;;;;;5031616;28;20029;-73
2022/05/28 06:19:25;;;;;;;0.00;0.00;;;14.70;99.90;;;;;;5022447;28;20041;-72
2022/05/28 06:21:51;;;;;;;0.00;0.00;;;15.00;99.90;;;;;;5026932;28;20378;-72
2022/05/28 06:24:17;;;;;;;0.00;0.00;;;15.00;99.90;;;;;;5018290;28;20041;-72
2022/05/28 06:26:43;;;;;;;0.00;0.00;;;15.20;99.90;;;;;;5027053;28;20036;-73
2022/05/28 06:29:09;;;;;;;0.00;0.00;;;15.10;99.90;;;;;;5024540;28;20034;-72
2022/05/28 06:31:35;;;;;;;0.10;0.10;;;15.20;99.90;;;;;;5025062;28;20025;-73
2022/05/28 06:34:01;;;;;;;0.03;0.03;;;15.00;99.90;;;;;;5014688;28;20140;-73
2022/05/28 06:36:27;;;;;;;15.98;14.43;;;14.90;99.90;;;;;;5027959;28;20025;-73
2022/05/28 06:38:53;;;;;;;0.00;0.00;;;14.60;99.90;;;;;;5028032;28;20025;-73
2022/05/28 06:41:19;;;;;;;0.65;0.65;;;14.50;99.90;;;;;;5027733;28;20029;-73
2022/05/28 06:43:45;;;;;;;0.00;0.00;;;14.40;99.90;;;;;;5018442;28;20049;-73
2022/05/28 06:46:12;;;;;;;0.00;0.00;;;14.60;99.90;;;;;;5021763;28;20032;-72
2022/05/28 06:48:38;;;;;;;0.00;0.00;;;14.70;99.90;;;;;;5029900;28;20513;-73
2022/05/28 06:51:06;;;;;;;0.08;0.08;;;15.10;99.90;;;;;;5024002;28;20148;-73
2022/05/28 06:53:45;;;;;;;0.00;0.00;;;15.00;99.90;;;;;;5015030;28;20037;-73
2022/05/28 06:56:12;;;;;;;0.00;0.00;;;15.20;99.90;;;;;;5032427;28;20032;-73
2022/05/28 06:58:38;;;;;;;0.00;0.00;;;15.20;99.90;;;;;;5028615;28;20040;-73
2022/05/28 07:01:06;;;;;;;0.03;0.03;;;14.90;99.90;;;;;;5024533;28;20057;-73
2022/05/28 07:03:33;;;;;;;0.20;0.20;;;14.80;99.90;;;;;;5019400;28;20422;-73
2022/05/28 07:05:59;;;;;;;0.00;0.00;;;14.60;99.90;;;;;;5027045;28;20075;-73
2022/05/28 07:08:26;;;;;;;0.00;0.00;;;14.70;99.90;;;;;;5027647;28;20474;-72
2022/05/28 07:10:55;;;;;;;0.00;0.00;;;14.50;99.90;;;;;;5029575;28;20045;-71
2022/05/28 07:13:22;;;;;;;15.68;14.60;;;14.70;99.90;;;;;;5022226;28;20413;-73
2022/05/28 07:15:49;;;;;;;0.00;0.00;;;14.50;99.90;;;;;;5020728;28;20021;-73
2022/05/28 07:18:15;;;;;;;0.00;0.00;;;14.60;99.90;;;;;;5018762;28;20459;-73
2022/05/28 07:20:42;;;;;;;0.00;0.00;;;14.90;99.90;;;;;;5022051;28;20057;-74
2022/05/28 07:23:10;;;;;;;0.00;0.00;;;15.20;99.90;;;;;;5024417;28;20547;-73
2022/05/28 07:25:36;;;;;;;0.10;0.10;;;15.00;99.90;;;;;;5023028;28;20049;-72
2022/05/28 07:28:24;;;;;;;0.00;0.00;;;15.20;99.90;;;;;;5023284;28;20048;-74
2022/05/28 07:30:48;;;;;;;0.00;0.00;;;15.30;99.90;;;;;;5024217;28;20068;-73
2022/05/28 07:33:15;;;;;;;0.00;0.00;;;15.40;99.90;;;;;;5018192;28;20390;-73
2022/05/28 07:35:42;;;;;;;0.00;0.00;;;15.60;99.90;;;;;;5016243;28;20091;-73
2022/05/28 07:38:08;;;;;;;0.63;0.63;;;15.60;99.90;;;;;;5015865;28;20069;-73
2022/05/28 07:40:35;;;;;;;0.28;0.22;;;15.10;99.90;;;;;;5019460;28;20240;-73
2022/05/28 07:43:01;;;;;;;0.00;0.00;;;15.20;99.90;;;;;;5023791;28;20725;-73
2022/05/28 07:45:27;;;;;;;0.00;0.00;;;15.20;99.90;;;;;;5022771;28;20057;-72
2022/05/28 07:47:53;;;;;;;0.00;0.00;;;15.30;99.90;;;;;;5022046;28;20147;-74
2022/05/28 07:50:20;;;;;;;0.00;0.00;;;15.60;99.90;;;;;;5030504;28;20108;-73
2022/05/28 07:52:48;;;;;;;1.17;1.17;;;15.80;99.90;;;;;;5023410;28;20044;-74
2022/05/28 07:55:14;;;;;;;1.45;1.35;;;15.80;99.90;;;;;;5020847;28;20025;-73
2022/05/28 07:57:42;;;;;;;0.10;0.00;;;15.70;99.90;;;;;;5042792;28;20033;-73
2022/05/28 08:00:14;;;;;;;0.00;0.00;;;15.40;99.90;;;;;;5035479;28;20034;-73
2022/05/28 08:02:40;;;;;;;0.32;0.30;;;15.10;99.90;;;;;;5030685;28;20031;-73
2022/05/28 08:05:07;;;;;;;0.10;0.10;;;14.40;99.90;;;;;;5028064;28;20026;-75
2022/05/28 08:07:34;;;;;;;0.00;0.00;;;14.40;99.90;;;;;;5029618;28;20517;-73
2022/05/28 08:10:00;;;;;;;0.00;0.00;;;14.50;99.90;;;;;;5030261;28;20474;-74
2022/05/28 08:12:26;;;;;;;0.00;0.00;;;14.70;99.90;;;;;;5036599;28;20494;-73
2022/05/28 08:14:52;;;;;;;7.68;4.97;;;14.40;99.90;;;;;;5022414;28;20034;-74
2022/05/28 08:17:18;;;;;;;0.55;0.55;;;14.20;99.90;;;;;;5019014;28;20029;-74
2022/05/28 08:19:44;;;;;;;0.10;0.10;;;14.40;99.90;;;;;;5019345;28;20358;-74
2022/05/28 08:24:58;;;;;;;0.00;0.00;;;14.80;99.90;;;;;;5023481;28;20079;-74
2022/05/28 08:27:24;;;;;;;0.00;0.00;;;14.90;99.90;;;;;;5029048;28;20025;-73
2022/05/28 08:29:50;;;;;;;0.00;0.00;;;14.90;99.90;;;;;;5036794;28;20095;-73
2022/05/28 08:32:18;;;;;;;0.00;0.00;;;14.80;99.90;;;;;;5024073;28;20029;-73
2022/05/28 08:34:45;;;;;;;0.20;0.05;;;14.60;99.90;;;;;;5031866;28;20080;-72
2022/05/28 08:37:11;;;;;;;0.00;0.00;;;14.70;99.90;;;;;;5030115;28;20475;-72
2022/05/28 08:39:38;;;;;;;0.00;0.00;;;14.10;99.90;;;;;;5022546;28;20034;-72
2022/05/28 08:42:05;;;;;;;5.93;0.52;;;14.00;99.90;;;;;;5026570;28;20033;-72
2022/05/28 08:44:42;;;;;;;0.00;0.00;;;13.70;99.90;;;;;;5025888;28;20021;-72
2022/05/28 08:47:19;;;;;;;0.00;0.00;;;13.50;99.90;;;;;;5021717;28;20034;-73
2022/05/28 08:49:46;;;;;;;0.00;0.00;;;13.50;99.90;;;;;;5018363;28;20037;-72
2022/05/28 08:52:29;;;;;;;0.00;0.00;;;13.50;99.90;;;;;;5033696;28;20459;-72
2022/05/28 08:55:07;;;;;;;0.00;0.00;;;13.50;99.90;;;;;;5031905;28;20022;-73
2022/05/28 08:57:48;;;;;;;1.85;0.88;;;13.60;99.90;;;;;;5026977;28;20029;-73
2022/05/28 09:00:19;;;;;;;0.10;0.10;;;13.50;99.90;;;;;;5025953;28;20025;-73
2022/05/28 09:02:55;;;;;;;0.47;0.25;;;13.50;99.90;;;;;;5033265;28;20033;-73
2022/05/28 09:05:46;;;;;;;0.00;0.00;;;13.60;99.90;;;;;;5020189;28;20045;-73
2022/05/28 09:08:13;;;;;;;0.00;0.00;;;13.80;99.90;;;;;;5018592;28;20041;-73
2022/05/28 09:10:46;;;;;;;0.10;0.10;;;13.80;99.90;;;;;;5028232;28;20032;-73
2022/05/28 09:13:31;;;;;;;0.47;0.32;;;13.80;99.90;;;;;;5032555;28;20021;-73
2022/05/28 09:16:00;;;;;;;0.00;0.00;;;13.80;99.90;;;;;;5029261;28;20025;-73
2022/05/28 09:18:37;;;;;;;0.00;0.00;;;13.80;99.90;;;;;;5031131;28;20021;-73
2022/05/28 09:21:07;;;;;;;0.10;0.00;;;13.70;99.90;;;;;;5028900;28;20033;-73
2022/05/28 09:24:13;;;;;;;0.00;0.00;;;13.70;99.90;;;;;;5023369;28;20061;-73
2022/05/28 09:26:59;;;;;;;0.65;0.65;;;13.80;99.90;;;;;;5015781;28;21446;-74
2022/05/28 09:29:36;;;;;;;0.00;0.00;;;13.90;99.90;;;;;;5024444;28;20057;-73
2022/05/28 09:32:16;;;;;;;1.95;1.75;;;13.80;99.90;;;;;;5019033;28;20041;-73
2022/05/28 09:34:59;;;;;;;5.63;1.98;;;13.80;99.90;;;;;;5015938;28;20025;-74
2022/05/28 09:37:31;;;;;;;0.13;0.13;;;13.70;99.90;;;;;;5018088;28;20026;-73
2022/05/28 09:40:05;;;;;;;0.00;0.00;;;13.80;99.90;;;;;;5018837;28;20056;-74
2022/05/28 09:42:45;;;;;;;0.10;0.10;;;13.70;99.90;;;;;;5016101;28;20410;-73
2022/05/28 09:45:27;;;;;;;0.00;0.00;;;13.50;99.90;;;;;;5023756;28;20024;-73
2022/05/28 09:47:54;;;;;;;0.00;0.00;;;13.60;99.90;;;;;;5027903;28;20124;-73
2022/05/28 09:50:27;;;;;;;0.00;0.00;;;13.70;99.90;;;;;;5020502;28;20509;-73
2022/05/28 09:56:12;;;;;;;0.25;0.25;;;13.60;99.90;;;;;;5023167;28;20044;-73
2022/05/28 09:58:40;;;;;;;0.00;0.00;;;13.70;99.90;;;;;;5026200;28;20049;-73
2022/05/28 10:01:21;;;;;;;3.80;0.35;;;13.70;99.90;;;;;;5017394;28;20022;-73
2022/05/28 10:06:43;;;;;;;0.00;0.00;;;13.60;99.90;;;;;;5014894;28;20072;-73
2022/05/28 10:09:21;;;;;;;0.40;0.40;;;13.20;99.90;;;;;;5019545;28;20100;-71
2022/05/28 10:12:00;;;;;;;0.57;0.57;;;13.20;99.90;;;;;;5016110;28;20026;-71
2022/05/28 10:14:31;;;;;;;0.20;0.20;;;13.20;99.90;;;;;;5022118;28;20022;-72
2022/05/28 10:17:03;;;;;;;0.00;0.00;;;13.40;99.90;;;;;;5020488;28;20068;-73
2022/05/28 10:19:39;;;;;;;0.85;0.55;;;13.40;99.90;;;;;;5012237;28;20055;-73
2022/05/28 10:22:12;;;;;;;0.10;0.00;;;13.20;99.90;;;;;;5022709;28;20029;-73
2022/05/28 10:24:45;;;;;;;1.30;1.23;;;13.30;99.90;;;;;;5020886;28;20149;-73
2022/05/28 10:27:33;;;;;;;0.38;0.38;;;13.30;99.90;;;;;;5024068;28;20029;-73
2022/05/28 10:30:02;;;;;;;0.00;0.00;;;13.10;99.90;;;;;;5023670;28;20576;-73
2022/05/28 10:32:36;;;;;;;0.68;0.68;;;13.10;99.90;;;;;;5016366;28;20060;-72
2022/05/28 10:35:12;;;;;;;0.00;0.00;;;13.30;99.90;;;;;;5027962;28;20080;-73
2022/05/28 10:37:39;;;;;;;0.00;0.00;;;13.20;99.90;;;;;;5039383;28;20032;-74
2022/05/28 10:40:21;;;;;;;0.00;0.00;;;13.00;99.90;;;;;;5045920;28;20070;-73
2022/05/28 10:42:48;;;;;;;1.08;1.00;;;13.10;99.90;;;;;;5014074;28;20100;-73
2022/05/28 10:45:19;;;;;;;0.00;0.00;;;13.20;99.90;;;;;;5029150;28;20061;-74
2022/05/28 10:48:03;;;;;;;0.00;0.00;;;13.30;99.90;;;;;;5026902;28;20386;-72
2022/05/28 10:50:48;;;;;;;0.00;0.00;;;13.40;99.90;;;;;;5021483;28;20033;-71
2022/05/28 10:53:38;;;;;;;0.00;0.00;;;13.60;99.90;;;;;;5015526;28;20030;-72
2022/05/28 10:56:41;;;;;;;0.17;0.17;;;13.70;99.90;;;;;;5017740;28;20057;-73
2022/05/28 10:59:24;;;;;;;0.00;0.00;;;13.80;99.90;;;;;;5021603;28;20021;-72
2022/05/28 11:01:58;;;;;;;0.00;0.00;;;13.70;99.90;;;;;;5034999;28;20044;-73
2022/05/28 11:04:49;;;;;;;1.02;1.00;;;13.60;99.90;;;;;;5024305;28;20029;-72
2022/05/28 11:07:17;;;;;;;0.22;0.20;;;13.50;99.90;;;;;;5011575;28;20050;-72
2022/05/28 11:09:49;;;;;;;0.00;0.00;;;13.60;99.90;;;;;;5011052;28;20464;-72
2022/05/28 11:12:15;;;;;;;0.00;0.00;;;13.70;99.90;;;;;;5013924;28;20038;-74
2022/05/28 11:15:20;;;;;;;0.00;0.00;;;13.60;99.90;;;;;;5017096;28;20037;-73
2022/05/28 11:18:04;;;;;;;0.00;0.00;;;13.70;99.90;;;;;;5015263;28;20052;-71
2022/05/28 11:20:57;;;;;;;0.00;0.00;;;13.60;99.90;;;;;;5017419;28;20037;-72
2022/05/28 11:23:43;;;;;;;2.72;1.80;;;13.60;99.90;;;;;;5015598;28;20068;-72
2022/05/28 11:26:21;;;;;;;0.00;0.00;;;13.50;99.90;;;;;;5015291;28;20037;-74
2022/05/28 11:29:06;;;;;;;0.00;0.00;;;13.50;99.90;;;;;;5021870;28;20533;-72
2022/05/28 11:31:43;;;;;;;0.17;0.17;;;13.50;99.90;;;;;;5011492;28;20402;-74
2022/05/28 11:34:28;;;;;;;0.10;0.10;;;13.50;99.90;;;;;;5016506;28;20468;-73
2022/05/28 11:37:23;;;;;;;0.00;0.00;;;13.40;99.90;;;;;;5019439;28;20096;-73
2022/05/28 11:39:55;;;;;;;1.67;0.65;;;13.60;99.90;;;;;;5011300;28;20046;-72
2022/05/28 11:42:33;;;;;;;0.00;0.00;;;13.60;99.90;;;;;;5013975;28;20042;-73
2022/05/28 11:45:03;;;;;;;0.00;0.00;;;13.70;99.90;;;;;;5016122;28;20038;-73
2022/05/28 11:47:45;;;;;;;0.57;0.57;;;13.80;99.90;;;;;;5016438;28;20100;-73
2022/05/28 11:53:17;;;;;;;0.00;0.00;;;13.50;99.90;;;;;;5016281;28;20052;-74
2022/05/28 11:55:45;;;;;;;0.00;0.00;;;13.40;99.90;;;;;;5016103;28;20270;-71
2022/05/28 11:58:18;;;;;;;0.00;0.00;;;13.50;99.90;;;;;;5017743;28;20021;-73
2022/05/28 12:01:01;;;;;;;0.00;0.00;;;13.30;99.90;;;;;;5017183;28;20022;-73
2022/05/28 12:03:30;;;;;;;2.50;0.95;;;13.40;99.90;;;;;;5013433;28;20400;-73
2022/05/28 12:06:02;;;;;;;2.22;2.03;;;13.50;99.90;;;;;;5014484;28;20029;-74
2022/05/28 12:08:30;;;;;;;0.00;0.00;;;13.40;99.90;;;;;;5016960;28;20037;-73
2022/05/28 12:11:22;;;;;;;0.00;0.00;;;13.30;99.90;;;;;;5017045;28;20065;-74
2022/05/28 12:13:52;;;;;;;0.00;0.00;;;13.20;99.90;;;;;;5015789;28;20033;-74
2022/05/28 12:16:21;;;;;;;0.00;0.00;;;13.20;99.90;;;;;;5021356;28;20073;-73
2022/05/28 12:19:01;;;;;;;0.00;0.00;;;13.40;99.90;;;;;;5014491;28;20378;-73
2022/05/28 12:21:30;;;;;;;0.28;0.28;;;13.20;99.90;;;;;;5014009;28;20018;-73
2022/05/28 12:24:20;;;;;;;0.00;0.00;;;13.10;99.90;;;;;;5011779;28;20034;-72
2022/05/28 12:29:54;;;;;;;0.03;0.03;;;13.30;99.90;;;;;;5018722;28;20438;-72
2022/05/28 12:32:23;;;;;;;0.00;0.00;;;13.40;99.90;;;;;;5022884;28;20029;-72
2022/05/28 12:35:08;;;;;;;0.30;0.30;;;13.50;99.90;;;;;;5017190;28;20033;-72
2022/05/28 12:37:37;;;;;;;0.00;0.00;;;13.50;99.90;;;;;;5030026;28;20589;-72
2022/05/28 12:40:34;;;;;;;0.00;0.00;;;13.60;99.90;;;;;;5018921;28;20390;-73
2022/05/28 12:43:30;;;;;;;0.00;0.00;;;13.60;99.90;;;;;;5015461;28;20030;-73
2022/05/28 12:45:58;;;;;;;0.63;0.63;;;13.50;99.90;;;;;;5027860;28;20030;-73
2022/05/28 12:48:33;;;;;;;0.05;0.05;;;13.60;99.90;;;;;;5026641;28;20025;-73
2022/05/28 12:51:11;;;;;;;0.00;0.00;;;13.80;99.90;;;;;;5029286;28;20151;-74
2022/05/28 12:54:01;;;;;;;0.00;0.00;;;13.70;99.90;;;;;;5025659;28;20076;-73
2022/05/28 12:56:33;;;;;;;1.08;0.65;;;13.40;99.90;;;;;;5035558;28;20086;-73
2022/05/28 12:59:16;;;;;;;0.43;0.00;;;13.50;99.90;;;;;;5038806;28;20013;-73
2022/05/28 13:02:24;;;;;;;0.20;0.20;;;13.50;99.90;;;;;;5030500;28;20026;-74
2022/05/28 13:05:00;;;;;;;0.28;0.28;;;13.50;99.90;;;;;;5002685;28;20087;-74
2022/05/28 13:07:40;;;;;;;1.92;1.83;;;13.60;99.90;;;;;;5028717;28;20133;-71
2022/05/28 13:10:23;;;;;;;3.50;1.45;;;13.60;99.90;;;;;;5021444;28;20353;-75
2022/05/28 13:13:13;;;;;;;0.40;0.38;;;13.60;99.90;;;;;;5017141;28;20045;-73
2022/05/28 13:16:10;;;;;;;1.02;0.93;;;13.70;99.90;;;;;;5025474;28;20053;-74
2022/05/28 13:19:00;;;;;;;2.63;0.60;;;13.80;99.90;;;;;;5027289;28;20034;-73
2022/05/28 13:21:46;;;;;;;0.70;0.40;;;13.90;99.90;;;;;;5015852;28;20080;-73
2022/05/28 13:24:49;;;;;;;2.70;1.63;;;13.90;99.90;;;;;;5023580;28;20022;-74
2022/05/28 13:27:43;;;;;;;0.68;0.65;;;13.90;99.90;;;;;;5020127;28;20022;-74